createdAt,value
2018-06-30T00:00:56.124Z,65.10
2018-06-30T00:01:56.181Z,65.50
2018-06-30T00:02:56.157Z,70.70
2018-06-30T00:03:56.310Z,73.60
2018-06-30T00:04:56.173Z,74.20
2018-06-30T00:05:56.175Z,71.80
2018-06-30T00:06:56.206Z,73.30
2018-06-30T00:07:56.217Z,75.50
2018-06-30T00:08:56.317Z,74.90
2018-06-30T00:09:56.252Z,76.50
2018-06-30T00:10:56.250Z,80.30
2018-06-30T00:11:56.270Z,82.10
2018-06-30T00:12:56.280Z,83.10
2018-06-30T00:13:56.382Z,81.70
2018-06-30T00:14:56.307Z,84.20
2018-06-30T00:15:56.312Z,84.00
2018-06-30T00:16:56.322Z,80.90
2018-06-30T00:17:56.347Z,82.10
2018-06-30T00:18:56.581Z,80.70
2018-06-30T00:19:56.495Z,79.90
2018-06-30T00:20:56.430Z,85.80
2018-06-30T00:21:56.411Z,87.00
2018-06-30T00:22:56.424Z,86.50
2018-06-30T00:23:56.591Z,88.30
2018-06-30T00:24:56.442Z,87.80
2018-06-30T00:25:56.442Z,85.80
2018-06-30T00:26:56.473Z,83.30
2018-06-30T00:27:56.474Z,85.50
2018-06-30T00:28:56.646Z,81.20
2018-06-30T00:29:56.507Z,79.40
2018-06-30T00:30:56.508Z,80.60
2018-06-30T00:31:56.575Z,76.00
2018-06-30T00:32:56.594Z,78.50
2018-06-30T00:33:56.715Z,79.60
2018-06-30T00:34:56.568Z,81.40
2018-06-30T00:35:56.599Z,82.20
2018-06-30T00:36:56.588Z,89.00
2018-06-30T00:37:56.615Z,83.70
2018-06-30T00:38:56.735Z,85.70
2018-06-30T00:39:56.629Z,82.40
2018-06-30T00:40:56.648Z,82.90
2018-06-30T00:41:56.668Z,88.40
2018-06-30T00:42:56.680Z,90.80
2018-06-30T00:43:56.844Z,92.90
2018-06-30T00:44:56.708Z,93.00
2018-06-30T00:45:56.723Z,93.70
2018-06-30T00:46:56.720Z,92.20
2018-06-30T00:47:56.749Z,97.10
2018-06-30T00:48:56.869Z,102.20
2018-06-30T00:49:56.761Z,105.30
2018-06-30T00:50:56.802Z,101.50
2018-06-30T00:51:56.845Z,96.60
2018-06-30T00:52:56.827Z,100.60
2018-06-30T00:53:56.812Z,100.00
2018-06-30T00:54:56.932Z,98.90
2018-06-30T00:55:56.854Z,101.60
2018-06-30T00:56:56.864Z,101.60
2018-06-30T00:57:56.916Z,96.90
2018-06-30T00:58:56.885Z,96.60
2018-06-30T00:59:56.994Z,101.40
2018-06-30T01:00:56.918Z,101.00
2018-06-30T01:01:56.936Z,103.30
2018-06-30T01:02:56.933Z,106.10
2018-06-30T01:03:56.969Z,107.90
2018-06-30T01:04:57.061Z,108.00
2018-06-30T01:05:57.032Z,105.20
2018-06-30T01:06:57.001Z,103.00
2018-06-30T01:07:57.009Z,109.10
2018-06-30T01:08:57.030Z,106.30
2018-06-30T01:09:57.174Z,106.10
2018-06-30T01:10:57.041Z,107.70
2018-06-30T01:11:57.054Z,109.60
2018-06-30T01:12:57.071Z,105.60
2018-06-30T01:13:57.108Z,104.00
2018-06-30T01:14:57.105Z,106.90
2018-06-30T01:15:57.279Z,105.60
2018-06-30T01:16:57.124Z,104.40
2018-06-30T01:17:57.144Z,103.90
2018-06-30T01:18:57.152Z,105.50
2018-06-30T01:19:57.184Z,100.10
2018-06-30T01:20:57.278Z,99.80
2018-06-30T01:21:57.207Z,95.40
2018-06-30T01:22:57.200Z,96.40
2018-06-30T01:23:57.211Z,99.00
2018-06-30T01:24:57.234Z,95.20
2018-06-30T01:25:57.349Z,94.80
2018-06-30T01:26:57.256Z,96.30
2018-06-30T01:27:57.268Z,94.30
2018-06-30T01:28:57.297Z,97.70
2018-06-30T01:29:57.296Z,102.70
2018-06-30T01:30:57.402Z,97.10
2018-06-30T01:31:57.321Z,98.20
2018-06-30T01:32:57.344Z,96.10
2018-06-30T01:33:57.368Z,95.40
2018-06-30T01:34:57.364Z,95.60
2018-06-30T01:35:57.435Z,98.10
2018-06-30T01:36:57.382Z,93.60
2018-06-30T01:37:57.402Z,94.80
2018-06-30T01:38:57.415Z,99.10
2018-06-30T01:39:57.585Z,103.60
2018-06-30T01:40:57.427Z,101.60
2018-06-30T01:41:57.440Z,106.30
2018-06-30T01:42:57.465Z,107.20
2018-06-30T01:43:57.526Z,106.40
2018-06-30T01:44:57.596Z,107.70
2018-06-30T01:45:57.517Z,106.60
2018-06-30T01:46:57.513Z,103.40
2018-06-30T01:47:57.650Z,102.30
2018-06-30T01:48:57.530Z,101.40
2018-06-30T01:49:57.722Z,101.10
2018-06-30T01:50:57.614Z,96.10
2018-06-30T01:51:57.578Z,99.30
2018-06-30T01:52:57.588Z,109.50
2018-06-30T01:53:57.605Z,166.60
2018-06-30T01:54:57.772Z,272.60
2018-06-30T01:55:57.638Z,336.00
2018-06-30T01:56:57.634Z,358.50
2018-06-30T01:57:57.645Z,363.90
2018-06-30T01:58:57.659Z,373.40
2018-06-30T01:59:57.821Z,378.10
2018-06-30T02:00:57.749Z,364.50
2018-06-30T02:01:57.727Z,367.60
2018-06-30T02:02:57.736Z,392.70
2018-06-30T02:03:57.788Z,414.50
2018-06-30T02:04:57.767Z,386.60
2018-06-30T02:05:57.919Z,371.20
2018-06-30T02:06:57.775Z,391.30
2018-06-30T02:07:57.792Z,387.90
2018-06-30T02:08:57.787Z,361.00
2018-06-30T02:09:57.833Z,282.20
2018-06-30T02:10:57.917Z,253.00
2018-06-30T02:11:57.857Z,221.70
2018-06-30T02:12:57.862Z,186.90
2018-06-30T02:13:57.857Z,140.40
2018-06-30T02:14:57.874Z,136.30
2018-06-30T02:15:57.946Z,124.10
2018-06-30T02:16:57.901Z,120.10
2018-06-30T02:17:57.908Z,112.90
2018-06-30T02:18:57.925Z,107.40
2018-06-30T02:19:57.933Z,105.30
2018-06-30T02:20:58.088Z,103.40
2018-06-30T02:21:57.965Z,102.30
2018-06-30T02:22:57.970Z,100.90
2018-06-30T02:23:57.988Z,102.10
2018-06-30T02:24:58.024Z,101.10
2018-06-30T02:25:58.115Z,99.50
2018-06-30T02:26:58.033Z,99.40
2018-06-30T02:27:58.053Z,100.10
2018-06-30T02:28:58.047Z,98.00
2018-06-30T02:29:58.080Z,98.00
2018-06-30T02:30:58.280Z,95.30
2018-06-30T02:31:58.091Z,97.80
2018-06-30T02:32:58.112Z,99.20
2018-06-30T02:33:58.126Z,99.30
2018-06-30T02:34:58.144Z,100.60
2018-06-30T02:35:58.134Z,99.60
2018-06-30T02:36:58.308Z,103.20
2018-06-30T02:37:58.162Z,104.20
2018-06-30T02:38:58.205Z,103.30
2018-06-30T02:39:58.204Z,107.00
2018-06-30T02:40:58.199Z,108.20
2018-06-30T02:41:58.319Z,108.60
2018-06-30T02:42:58.244Z,108.60
2018-06-30T02:43:58.249Z,106.60
2018-06-30T02:44:58.245Z,104.10
2018-06-30T02:45:58.346Z,110.60
2018-06-30T02:46:58.320Z,107.20
2018-06-30T02:47:58.306Z,105.80
2018-06-30T02:48:58.299Z,103.30
2018-06-30T02:49:58.444Z,106.90
2018-06-30T02:50:58.377Z,105.80
2018-06-30T02:51:58.491Z,107.20
2018-06-30T02:52:58.356Z,109.30
2018-06-30T02:53:58.384Z,114.30
2018-06-30T02:54:58.373Z,110.60
2018-06-30T02:55:58.400Z,117.10
2018-06-30T02:56:58.562Z,114.10
2018-06-30T02:57:58.408Z,112.00
2018-06-30T02:58:58.422Z,112.60
2018-06-30T02:59:58.449Z,120.50
2018-06-30T03:00:58.459Z,128.80
2018-06-30T03:01:58.565Z,129.20
2018-06-30T03:02:58.482Z,123.10
2018-06-30T03:03:58.494Z,127.00
2018-06-30T03:04:58.498Z,131.60
2018-06-30T03:05:58.531Z,135.20
2018-06-30T03:06:58.643Z,143.90
2018-06-30T03:07:58.556Z,144.40
2018-06-30T03:08:58.598Z,130.40
2018-06-30T03:09:58.571Z,142.40
2018-06-30T03:10:58.571Z,137.50
2018-06-30T03:11:58.693Z,138.20
2018-06-30T03:12:58.617Z,138.10
2018-06-30T03:13:58.623Z,133.80
2018-06-30T03:14:58.622Z,130.90
2018-06-30T03:15:58.652Z,126.00
2018-06-30T03:16:58.764Z,131.90
2018-06-30T03:17:58.686Z,134.50
2018-06-30T03:18:58.679Z,137.70
2018-06-30T03:19:58.691Z,145.90
2018-06-30T03:20:58.714Z,145.10
2018-06-30T03:21:58.817Z,144.20
2018-06-30T03:22:58.732Z,142.50
2018-06-30T03:23:58.749Z,142.60
2018-06-30T03:24:58.766Z,144.70
2018-06-30T03:25:58.762Z,143.70
2018-06-30T03:26:58.881Z,143.90
2018-06-30T03:27:58.799Z,147.20
2018-06-30T03:28:58.801Z,140.00
2018-06-30T03:29:58.870Z,143.60
2018-06-30T03:30:58.836Z,136.00
2018-06-30T03:31:58.951Z,134.40
2018-06-30T03:32:58.857Z,133.20
2018-06-30T03:33:58.912Z,131.80
2018-06-30T03:34:58.876Z,138.20
2018-06-30T03:35:58.878Z,137.20
2018-06-30T03:36:58.991Z,127.80
2018-06-30T03:37:58.929Z,131.10
2018-06-30T03:38:58.925Z,140.50
2018-06-30T03:39:58.939Z,141.10
2018-06-30T03:40:58.959Z,141.20
2018-06-30T03:41:59.062Z,143.50
2018-06-30T03:42:58.969Z,143.60
2018-06-30T03:43:59.001Z,135.30
2018-06-30T03:44:59.011Z,135.40
2018-06-30T03:45:59.035Z,134.00
2018-06-30T03:46:59.030Z,138.60
2018-06-30T03:47:59.184Z,136.50
2018-06-30T03:48:59.043Z,134.90
2018-06-30T03:49:59.076Z,131.10
2018-06-30T03:50:59.086Z,129.10
2018-06-30T03:51:59.093Z,124.60
2018-06-30T03:52:59.107Z,127.80
2018-06-30T03:53:59.251Z,116.50
2018-06-30T03:54:59.127Z,119.30
2018-06-30T03:55:59.144Z,116.60
2018-06-30T03:56:59.136Z,120.40
2018-06-30T03:57:59.163Z,117.00
2018-06-30T03:58:59.237Z,117.50
2018-06-30T03:59:59.198Z,119.00
2018-06-30T04:00:59.198Z,114.40
2018-06-30T04:01:59.319Z,118.90
2018-06-30T04:02:59.243Z,120.20
2018-06-30T04:03:59.234Z,113.60
2018-06-30T04:04:59.245Z,122.50
2018-06-30T04:05:59.268Z,114.70
2018-06-30T04:06:59.517Z,111.50
2018-06-30T04:07:59.276Z,118.30
2018-06-30T04:08:59.302Z,114.40
2018-06-30T04:09:59.314Z,115.10
2018-06-30T04:10:59.328Z,117.40
2018-06-30T04:11:59.420Z,118.40
2018-06-30T04:12:59.338Z,118.90
2018-06-30T04:13:59.345Z,116.50
2018-06-30T04:14:59.367Z,123.80
2018-06-30T04:15:59.386Z,123.00
2018-06-30T04:16:59.551Z,123.40
2018-06-30T04:17:59.409Z,120.00
2018-06-30T04:18:59.426Z,118.40
2018-06-30T04:19:59.437Z,119.70
2018-06-30T04:20:59.430Z,121.60
2018-06-30T04:21:59.555Z,133.00
2018-06-30T04:22:59.466Z,132.80
2018-06-30T04:23:59.478Z,124.60
2018-06-30T04:24:59.506Z,128.70
2018-06-30T04:25:59.665Z,132.30
2018-06-30T04:26:59.522Z,126.30
2018-06-30T04:27:59.535Z,126.20
2018-06-30T04:28:59.582Z,133.30
2018-06-30T04:29:59.560Z,123.20
2018-06-30T04:30:59.758Z,126.50
2018-06-30T04:31:59.579Z,134.00
2018-06-30T04:32:59.579Z,140.40
2018-06-30T04:33:59.605Z,135.50
2018-06-30T04:34:59.614Z,137.70
2018-06-30T04:35:59.767Z,132.90
2018-06-30T04:36:59.624Z,140.70
2018-06-30T04:37:59.643Z,137.40
2018-06-30T04:38:59.668Z,121.50
2018-06-30T04:39:59.686Z,114.50
2018-06-30T04:40:59.835Z,117.90
2018-06-30T04:41:59.715Z,116.10
2018-06-30T04:42:59.693Z,115.40
2018-06-30T04:43:59.729Z,119.30
2018-06-30T04:44:59.744Z,126.50
2018-06-30T04:45:59.850Z,127.10
2018-06-30T04:46:59.878Z,122.20
2018-06-30T04:47:59.775Z,117.30
2018-06-30T04:48:59.785Z,113.60
2018-06-30T04:49:59.808Z,115.70
2018-06-30T04:50:59.804Z,114.70
2018-06-30T04:51:59.978Z,114.90
2018-06-30T04:52:59.816Z,114.40
2018-06-30T04:53:59.827Z,115.90
2018-06-30T04:54:59.867Z,118.20
2018-06-30T04:55:59.857Z,118.90
2018-06-30T04:56:59.869Z,122.70
2018-06-30T04:58:00.042Z,127.30
2018-06-30T04:58:59.893Z,126.60
2018-06-30T04:59:59.906Z,127.70
2018-06-30T05:00:59.925Z,131.00
2018-06-30T05:01:59.960Z,129.20
2018-06-30T05:03:00.087Z,125.70
2018-06-30T05:03:59.962Z,128.10
2018-06-30T05:04:59.988Z,134.40
2018-06-30T05:05:59.990Z,133.70
2018-06-30T05:07:00.001Z,136.70
2018-06-30T05:08:00.163Z,137.00
2018-06-30T05:09:00.040Z,132.40
2018-06-30T05:10:00.082Z,139.40
2018-06-30T05:11:00.059Z,140.00
2018-06-30T05:12:00.051Z,137.20
2018-06-30T05:13:00.178Z,137.70
2018-06-30T05:14:00.097Z,136.30
2018-06-30T05:15:00.110Z,133.40
2018-06-30T05:16:00.099Z,132.80
2018-06-30T05:17:00.118Z,132.30
2018-06-30T05:18:00.217Z,126.60
2018-06-30T05:19:00.155Z,136.10
2018-06-30T05:20:00.164Z,140.20
2018-06-30T05:21:00.154Z,140.30
2018-06-30T05:22:00.176Z,142.80
2018-06-30T05:23:00.336Z,143.60
2018-06-30T05:24:00.210Z,140.70
2018-06-30T05:25:00.218Z,146.90
2018-06-30T05:26:00.289Z,149.70
2018-06-30T05:27:00.228Z,151.00
2018-06-30T05:28:00.356Z,148.30
2018-06-30T05:29:00.272Z,148.50
2018-06-30T05:30:00.293Z,149.60
2018-06-30T05:31:00.288Z,152.50
2018-06-30T05:32:00.305Z,151.20
2018-06-30T05:33:00.350Z,147.20
2018-06-30T05:34:00.462Z,143.80
2018-06-30T05:35:00.343Z,145.40
2018-06-30T05:36:00.332Z,143.70
2018-06-30T05:37:00.357Z,148.90
2018-06-30T05:38:00.377Z,152.90
2018-06-30T05:39:00.481Z,145.80
2018-06-30T05:40:00.400Z,144.10
2018-06-30T05:41:00.396Z,149.20
2018-06-30T05:42:00.412Z,146.20
2018-06-30T05:43:00.420Z,149.80
2018-06-30T05:44:00.548Z,155.70
2018-06-30T05:45:00.460Z,148.60
2018-06-30T05:46:00.462Z,146.80
2018-06-30T05:47:00.489Z,148.60
2018-06-30T05:48:00.473Z,148.10
2018-06-30T05:49:00.617Z,141.60
2018-06-30T05:50:00.525Z,127.60
2018-06-30T05:51:00.538Z,141.00
2018-06-30T05:52:00.537Z,131.20
2018-06-30T05:53:00.542Z,122.10
2018-06-30T05:54:00.717Z,116.00
2018-06-30T05:55:00.563Z,113.70
2018-06-30T05:56:00.598Z,130.10
2018-06-30T05:57:00.590Z,140.40
2018-06-30T05:58:00.594Z,142.00
2018-06-30T05:59:00.724Z,141.30
2018-06-30T06:00:00.676Z,139.50
2018-06-30T06:01:00.649Z,141.60
2018-06-30T06:02:00.649Z,138.50
2018-06-30T06:03:00.678Z,134.40
2018-06-30T06:04:00.774Z,133.40
2018-06-30T06:05:00.687Z,131.70
2018-06-30T06:06:00.709Z,126.40
2018-06-30T06:07:00.707Z,132.10
2018-06-30T06:08:00.715Z,135.80
2018-06-30T06:09:00.933Z,121.00
2018-06-30T06:10:00.843Z,112.00
2018-06-30T06:11:00.774Z,110.60
2018-06-30T06:12:00.764Z,119.80
2018-06-30T06:13:00.785Z,122.90
2018-06-30T06:14:00.895Z,107.60
2018-06-30T06:15:00.866Z,108.80
2018-06-30T06:16:00.821Z,110.90
2018-06-30T06:17:00.840Z,115.20
2018-06-30T06:18:00.862Z,114.50
2018-06-30T06:19:00.941Z,114.90
2018-06-30T06:20:00.867Z,111.30
2018-06-30T06:21:00.871Z,110.30
2018-06-30T06:22:00.945Z,108.40
2018-06-30T06:23:00.920Z,105.30
2018-06-30T06:24:01.003Z,109.00
2018-06-30T06:25:00.927Z,110.00
2018-06-30T06:26:01.021Z,104.70
2018-06-30T06:27:00.942Z,106.10
2018-06-30T06:28:01.002Z,103.40
2018-06-30T06:29:01.026Z,101.30
2018-06-30T06:30:00.993Z,95.40
2018-06-30T06:31:01.112Z,93.20
2018-06-30T06:32:01.014Z,89.40
2018-06-30T06:33:01.008Z,93.60
2018-06-30T06:34:01.047Z,101.00
2018-06-30T06:35:01.039Z,94.40
2018-06-30T06:36:01.048Z,89.80
2018-06-30T06:37:01.155Z,91.50
2018-06-30T06:38:01.074Z,91.40
2018-06-30T06:39:01.098Z,89.90
2018-06-30T06:40:01.114Z,88.80
2018-06-30T06:41:01.106Z,90.30
2018-06-30T06:42:01.217Z,87.40
2018-06-30T06:43:01.129Z,92.70
2018-06-30T06:44:01.191Z,91.00
2018-06-30T06:45:01.151Z,96.20
2018-06-30T06:46:01.184Z,89.60
2018-06-30T06:47:01.251Z,90.60
2018-06-30T06:48:01.298Z,91.40
2018-06-30T06:49:01.196Z,86.90
2018-06-30T06:50:01.207Z,88.40
2018-06-30T06:51:01.260Z,95.20
2018-06-30T06:52:01.244Z,98.60
2018-06-30T06:53:01.358Z,105.60
2018-06-30T06:54:01.267Z,108.30
2018-06-30T06:55:01.276Z,106.30
2018-06-30T06:56:01.305Z,102.60
2018-06-30T06:57:01.320Z,91.50
2018-06-30T06:58:01.411Z,92.50
2018-06-30T06:59:01.322Z,93.10
2018-06-30T07:00:01.325Z,89.00
2018-06-30T07:01:01.346Z,88.00
2018-06-30T07:02:01.362Z,87.90
2018-06-30T07:03:01.472Z,86.60
2018-06-30T07:04:01.534Z,84.80
2018-06-30T07:05:01.387Z,84.90
2018-06-30T07:06:01.407Z,84.20
2018-06-30T07:07:01.411Z,88.70
2018-06-30T07:08:01.430Z,86.40
2018-06-30T07:09:01.549Z,87.60
2018-06-30T07:10:01.460Z,88.80
2018-06-30T07:11:01.481Z,89.60
2018-06-30T07:12:01.483Z,91.80
2018-06-30T07:13:01.485Z,89.00
2018-06-30T07:14:01.647Z,88.90
2018-06-30T07:15:01.502Z,101.00
2018-06-30T07:16:01.521Z,107.40
2018-06-30T07:17:01.551Z,109.90
2018-06-30T07:18:01.536Z,109.20
2018-06-30T07:19:01.675Z,112.10
2018-06-30T07:20:01.610Z,107.20
2018-06-30T07:21:01.729Z,101.00
2018-06-30T07:22:01.758Z,109.30
2018-06-30T07:23:01.719Z,100.20
2018-06-30T07:24:01.814Z,92.00
2018-06-30T07:25:01.761Z,91.90
2018-06-30T07:26:01.736Z,90.10
2018-06-30T07:27:01.689Z,91.10
2018-06-30T07:28:01.671Z,91.60
2018-06-30T07:29:01.667Z,92.00
2018-06-30T07:30:01.792Z,92.10
2018-06-30T07:31:01.704Z,87.20
2018-06-30T07:32:01.718Z,90.50
2018-06-30T07:33:01.717Z,91.00
2018-06-30T07:34:01.786Z,90.70
2018-06-30T07:35:02.097Z,87.30
2018-06-30T07:36:01.752Z,85.20
2018-06-30T07:37:01.759Z,88.10
2018-06-30T07:38:01.777Z,82.40
2018-06-30T07:39:01.793Z,82.50
2018-06-30T07:40:01.905Z,72.70
2018-06-30T07:41:01.803Z,72.70
2018-06-30T07:42:01.830Z,77.30
2018-06-30T07:43:01.835Z,82.00
2018-06-30T07:44:01.853Z,81.10
2018-06-30T07:45:02.040Z,81.70
2018-06-30T07:46:01.909Z,81.40
2018-06-30T07:47:01.895Z,82.60
2018-06-30T07:48:01.913Z,88.00
2018-06-30T07:49:01.911Z,83.40
2018-06-30T07:50:01.970Z,72.60
2018-06-30T07:51:02.017Z,73.10
2018-06-30T07:52:01.926Z,72.30
2018-06-30T07:53:01.940Z,78.40
2018-06-30T07:54:01.974Z,80.20
2018-06-30T07:55:01.984Z,82.40
2018-06-30T07:56:02.090Z,87.80
2018-06-30T07:57:01.994Z,85.30
2018-06-30T07:58:02.013Z,79.70
2018-06-30T07:59:02.011Z,86.70
2018-06-30T08:00:02.150Z,77.70
2018-06-30T08:01:02.187Z,77.50
2018-06-30T08:02:02.076Z,76.80
2018-06-30T08:03:02.060Z,77.40
2018-06-30T08:04:02.078Z,74.90
2018-06-30T08:05:02.080Z,74.60
2018-06-30T08:06:02.088Z,76.40
2018-06-30T08:07:02.197Z,71.50
2018-06-30T08:08:02.160Z,66.00
2018-06-30T08:09:02.150Z,69.60
2018-06-30T08:10:02.157Z,64.90
2018-06-30T08:11:02.154Z,63.80
2018-06-30T08:12:02.278Z,63.90
2018-06-30T08:13:02.195Z,65.20
2018-06-30T08:14:02.213Z,67.10
2018-06-30T08:15:02.187Z,61.70
2018-06-30T08:16:02.212Z,61.20
2018-06-30T08:17:02.276Z,69.80
2018-06-30T08:18:02.231Z,79.80
2018-06-30T08:19:02.238Z,83.00
2018-06-30T08:20:02.351Z,83.00
2018-06-30T08:21:02.276Z,82.10
2018-06-30T08:22:02.273Z,83.00
2018-06-30T08:23:02.281Z,74.90
2018-06-30T08:24:02.313Z,75.60
2018-06-30T08:25:02.471Z,74.50
2018-06-30T08:26:02.340Z,72.80
2018-06-30T08:27:02.329Z,69.70
2018-06-30T08:28:02.396Z,70.10
2018-06-30T08:29:02.347Z,76.20
2018-06-30T08:30:02.515Z,77.80
2018-06-30T08:31:02.392Z,74.00
2018-06-30T08:32:02.386Z,76.30
2018-06-30T08:33:02.395Z,81.90
2018-06-30T08:34:02.404Z,81.70
2018-06-30T08:35:02.521Z,79.80
2018-06-30T08:36:02.439Z,79.20
2018-06-30T08:37:02.449Z,80.50
2018-06-30T08:38:02.461Z,75.40
2018-06-30T08:39:02.460Z,70.00
2018-06-30T08:40:02.625Z,68.10
2018-06-30T08:41:02.502Z,63.90
2018-06-30T08:42:02.518Z,63.30
2018-06-30T08:43:02.520Z,61.20
2018-06-30T08:44:02.525Z,64.80
2018-06-30T08:45:02.633Z,64.50
2018-06-30T08:46:02.564Z,61.70
2018-06-30T08:47:02.579Z,63.60
2018-06-30T08:48:02.575Z,60.30
2018-06-30T08:49:02.632Z,61.70
2018-06-30T08:50:02.637Z,61.20
2018-06-30T08:51:02.717Z,64.50
2018-06-30T08:52:02.620Z,61.10
2018-06-30T08:53:02.628Z,61.20
2018-06-30T08:54:02.660Z,60.70
2018-06-30T08:55:02.643Z,66.10
2018-06-30T08:56:02.721Z,62.20
2018-06-30T08:57:02.947Z,60.30
2018-06-30T08:58:02.692Z,58.00
2018-06-30T08:59:02.709Z,58.80
2018-06-30T09:00:02.719Z,58.40
2018-06-30T09:01:02.718Z,62.90
2018-06-30T09:02:02.824Z,60.00
2018-06-30T09:03:02.747Z,56.70
2018-06-30T09:04:02.762Z,61.10
2018-06-30T09:05:02.779Z,56.50
2018-06-30T09:06:02.775Z,58.10
2018-06-30T09:07:02.842Z,55.30
2018-06-30T09:08:02.810Z,56.30
2018-06-30T09:09:02.904Z,58.20
2018-06-30T09:10:02.839Z,61.10
2018-06-30T09:11:02.849Z,60.30
2018-06-30T09:12:02.964Z,57.60
2018-06-30T09:13:02.861Z,56.00
2018-06-30T09:14:02.975Z,53.00
2018-06-30T09:15:02.899Z,51.80
2018-06-30T09:16:02.991Z,53.20
2018-06-30T09:17:02.916Z,53.40
2018-06-30T09:18:02.931Z,54.40
2018-06-30T09:19:03.020Z,53.10
2018-06-30T09:20:02.949Z,49.80
2018-06-30T09:21:02.940Z,52.80
2018-06-30T09:22:02.967Z,51.30
2018-06-30T09:23:02.973Z,49.40
2018-06-30T09:24:03.051Z,50.20
2018-06-30T09:25:03.135Z,48.70
2018-06-30T09:26:02.998Z,47.30
2018-06-30T09:27:03.021Z,48.50
2018-06-30T09:28:03.044Z,48.30
2018-06-30T09:29:03.030Z,45.90
2018-06-30T09:30:03.061Z,49.10
2018-06-30T09:31:03.233Z,47.90
2018-06-30T09:32:03.090Z,50.70
2018-06-30T09:33:03.089Z,50.90
2018-06-30T09:34:03.087Z,50.70
2018-06-30T09:35:03.110Z,51.70
2018-06-30T09:36:03.320Z,51.90
2018-06-30T09:37:03.142Z,51.60
2018-06-30T09:38:03.147Z,50.80
2018-06-30T09:39:03.169Z,50.80
2018-06-30T09:40:03.176Z,51.40
2018-06-30T09:41:03.322Z,51.20
2018-06-30T09:42:03.177Z,51.50
2018-06-30T09:43:03.249Z,52.60
2018-06-30T09:44:03.215Z,50.50
2018-06-30T09:45:03.223Z,51.20
2018-06-30T09:46:03.247Z,50.90
2018-06-30T09:47:03.389Z,51.40
2018-06-30T09:48:03.266Z,49.20
2018-06-30T09:49:03.262Z,51.00
2018-06-30T09:50:03.276Z,49.70
2018-06-30T09:51:03.351Z,51.80
2018-06-30T09:52:03.441Z,51.70
2018-06-30T09:53:03.318Z,50.20
2018-06-30T09:54:03.374Z,49.30
2018-06-30T09:55:03.338Z,48.50
2018-06-30T09:56:03.335Z,47.70
2018-06-30T09:57:03.426Z,49.20
2018-06-30T09:58:03.391Z,48.60
2018-06-30T09:59:03.391Z,47.30
2018-06-30T10:00:03.391Z,47.70
2018-06-30T10:01:03.403Z,51.10
2018-06-30T10:02:03.558Z,52.30
2018-06-30T10:03:03.431Z,50.10
2018-06-30T10:04:03.444Z,52.70
2018-06-30T10:05:03.441Z,54.50
2018-06-30T10:06:03.451Z,60.80
2018-06-30T10:07:03.618Z,64.90
2018-06-30T10:08:03.521Z,68.10
2018-06-30T10:09:03.525Z,72.90
2018-06-30T10:10:03.503Z,77.10
2018-06-30T10:11:03.539Z,76.10
2018-06-30T10:12:03.676Z,75.40
2018-06-30T10:13:03.545Z,76.40
2018-06-30T10:14:03.544Z,79.10
2018-06-30T10:15:03.584Z,78.40
2018-06-30T10:16:03.593Z,73.90
2018-06-30T10:17:03.649Z,74.50
2018-06-30T10:18:03.620Z,70.90
2018-06-30T10:19:03.660Z,70.90
2018-06-30T10:20:03.621Z,71.90
2018-06-30T10:21:03.954Z,69.40
2018-06-30T10:22:03.665Z,65.40
2018-06-30T10:23:03.660Z,62.60
2018-06-30T10:24:03.673Z,61.10
2018-06-30T10:25:03.680Z,57.80
2018-06-30T10:26:03.844Z,59.90
2018-06-30T10:27:03.706Z,60.10
2018-06-30T10:28:03.738Z,59.30
2018-06-30T10:29:03.731Z,58.10
2018-06-30T10:30:03.769Z,56.20
2018-06-30T10:31:03.984Z,55.80
2018-06-30T10:32:03.764Z,56.00
2018-06-30T10:33:03.793Z,53.20
2018-06-30T10:34:03.800Z,54.10
2018-06-30T10:35:03.825Z,55.50
2018-06-30T10:36:03.814Z,54.20
2018-06-30T10:37:03.930Z,49.80
2018-06-30T10:38:03.840Z,49.00
2018-06-30T10:39:03.865Z,50.10
2018-06-30T10:40:03.889Z,47.80
2018-06-30T10:41:03.899Z,44.50
2018-06-30T10:42:04.017Z,40.80
2018-06-30T10:43:03.899Z,36.30
2018-06-30T10:44:03.927Z,37.70
2018-06-30T10:45:03.944Z,35.30
2018-06-30T10:46:03.961Z,37.90
2018-06-30T10:47:04.071Z,36.80
2018-06-30T10:48:03.993Z,37.30
2018-06-30T10:49:03.995Z,37.20
2018-06-30T10:50:03.998Z,37.00
2018-06-30T10:51:04.011Z,38.60
2018-06-30T10:52:04.130Z,38.40
2018-06-30T10:53:04.107Z,38.50
2018-06-30T10:54:04.109Z,36.80
2018-06-30T10:55:04.077Z,36.60
2018-06-30T10:56:04.094Z,36.00
2018-06-30T10:57:04.161Z,35.20
2018-06-30T10:58:04.113Z,32.70
2018-06-30T10:59:04.115Z,34.20
2018-06-30T11:00:04.141Z,35.80
2018-06-30T11:01:04.153Z,33.00
2018-06-30T11:02:04.329Z,34.70
2018-06-30T11:03:04.173Z,31.30
2018-06-30T11:04:04.206Z,31.90
2018-06-30T11:05:04.232Z,31.30
2018-06-30T11:06:04.243Z,30.20
2018-06-30T11:07:04.392Z,30.60
2018-06-30T11:09:04.267Z,29.40
2018-06-30T11:10:04.299Z,29.70
2018-06-30T11:11:04.371Z,29.20
2018-06-30T11:12:04.472Z,28.20
2018-06-30T11:13:04.334Z,26.40
2018-06-30T11:14:04.346Z,28.00
2018-06-30T11:15:04.348Z,26.60
2018-06-30T11:16:04.395Z,27.20
2018-06-30T11:17:04.541Z,26.70
2018-06-30T11:18:04.407Z,25.70
2018-06-30T11:19:04.424Z,27.60
2018-06-30T11:20:04.459Z,25.90
2018-06-30T11:21:04.450Z,26.10
2018-06-30T11:22:04.569Z,26.40
2018-06-30T11:23:04.481Z,25.90
2018-06-30T11:24:04.543Z,25.40
2018-06-30T11:25:04.530Z,25.20
2018-06-30T11:26:04.584Z,25.70
2018-06-30T11:27:04.693Z,26.00
2018-06-30T11:28:04.563Z,26.00
2018-06-30T11:29:04.580Z,26.90
2018-06-30T11:30:04.594Z,26.00
2018-06-30T11:31:04.637Z,26.20
2018-06-30T11:32:04.627Z,26.30
2018-06-30T11:33:04.765Z,25.60
2018-06-30T11:34:04.666Z,26.10
2018-06-30T11:35:04.678Z,25.60
2018-06-30T11:36:04.725Z,26.50
2018-06-30T11:37:04.715Z,27.00
2018-06-30T11:38:04.845Z,27.70
2018-06-30T11:39:04.768Z,28.10
2018-06-30T11:40:04.767Z,28.20
2018-06-30T11:41:04.808Z,30.70
2018-06-30T11:42:04.835Z,31.30
2018-06-30T11:43:05.025Z,29.10
2018-06-30T11:44:04.860Z,29.10
2018-06-30T11:45:04.865Z,28.30
2018-06-30T11:46:04.879Z,29.10
2018-06-30T11:47:04.887Z,28.90
2018-06-30T11:48:05.090Z,29.00
2018-06-30T11:49:04.924Z,27.40
2018-06-30T11:50:04.942Z,28.10
2018-06-30T11:51:04.984Z,29.30
2018-06-30T11:52:05.002Z,27.90
2018-06-30T11:53:05.155Z,29.70
2018-06-30T11:54:05.036Z,28.00
2018-06-30T11:55:05.038Z,26.70
2018-06-30T11:56:05.063Z,26.60
2018-06-30T11:57:05.101Z,25.90
2018-06-30T11:58:05.206Z,25.50
2018-06-30T11:59:05.117Z,25.40
2018-06-30T12:00:05.145Z,26.50
2018-06-30T12:01:05.147Z,28.20
2018-06-30T12:02:05.207Z,27.80
2018-06-30T12:03:05.304Z,26.70
2018-06-30T12:04:05.202Z,26.60
2018-06-30T12:05:05.241Z,26.70
2018-06-30T12:06:05.256Z,25.30
2018-06-30T12:07:05.278Z,25.10
2018-06-30T12:08:05.433Z,24.30
2018-06-30T12:09:05.316Z,25.30
2018-06-30T12:10:05.370Z,21.70
2018-06-30T12:11:05.347Z,20.70
2018-06-30T12:12:05.373Z,23.60
2018-06-30T12:13:05.487Z,21.20
2018-06-30T12:14:05.394Z,22.60
2018-06-30T12:15:05.410Z,21.40
2018-06-30T12:16:05.433Z,21.40
2018-06-30T12:17:05.457Z,22.40
2018-06-30T12:18:05.625Z,21.20
2018-06-30T12:19:05.505Z,21.30
2018-06-30T12:20:05.503Z,20.10
2018-06-30T12:21:05.532Z,21.40
2018-06-30T12:22:05.542Z,20.80
2018-06-30T12:23:05.613Z,20.60
2018-06-30T12:24:05.593Z,20.00
2018-06-30T12:25:05.713Z,18.90
2018-06-30T12:26:05.675Z,19.60
2018-06-30T12:27:05.632Z,19.70
2018-06-30T12:28:05.676Z,20.40
2018-06-30T12:29:05.680Z,18.60
2018-06-30T12:30:05.817Z,19.50
2018-06-30T12:31:05.723Z,19.80
2018-06-30T12:32:05.767Z,20.80
2018-06-30T12:33:05.773Z,20.20
2018-06-30T12:34:05.793Z,20.20
2018-06-30T12:35:05.806Z,19.90
2018-06-30T12:36:05.909Z,20.50
2018-06-30T12:37:05.821Z,21.20
2018-06-30T12:38:05.853Z,20.80
2018-06-30T12:39:05.917Z,20.30
2018-06-30T12:40:05.903Z,20.50
2018-06-30T12:41:05.987Z,20.80
2018-06-30T12:42:05.933Z,19.60
2018-06-30T12:43:05.946Z,19.20
2018-06-30T12:44:05.964Z,19.40